Time;durP1;ratioP1;P1;durP2;ratioP2;P2;SDS_P1;SDS_P2;PMS_P1;PMS_P2;Temp;Humidity;BMP_temperature;BMP_pressure;BME280_temperature;BME280_humidity;BME280_pressure;Samples;Min_cycle;Max_cycle;Signal;HPM_P1;HPM_P2
2023/03/27 00:00:00;;;;;;;7.20;5.40;;;;;;;;;;104809;263;44223;-31
2023/03/27 00:02:40;;;;;;;7.40;5.00;;;;;;;;;;104808;263;44280;-31
2023/03/27 00:05:19;;;;;;;7.10;5.30;;;;;;;;;;104787;263;40707;-31
2023/03/27 00:07:57;;;;;;;7.40;5.20;;;;;;;;;;104755;263;39840;-31
2023/03/27 00:10:33;;;;;;;7.30;5.20;;;;;;;;;;104780;263;42949;-31
2023/03/27 00:13:12;;;;;;;7.20;5.30;;;;;;;;;;104725;263;42295;-31
2023/03/27 00:15:49;;;;;;;7.10;5.10;;;;;;;;;;104744;263;38930;-31
2023/03/27 00:18:24;;;;;;;7.70;5.50;;;;;;;;;;104797;263;45362;-31
2023/03/27 00:21:02;;;;;;;7.50;5.50;;;;;;;;;;104722;263;43083;-31
2023/03/27 00:23:41;;;;;;;7.10;5.40;;;;;;;;;;104706;263;42364;-31
2023/03/27 00:26:17;;;;;;;7.40;5.20;;;;;;;;;;104787;263;38862;-31
2023/03/27 00:28:53;;;;;;;7.90;5.40;;;;;;;;;;104753;263;45847;-31
2023/03/27 00:31:29;;;;;;;7.10;5.10;;;;;;;;;;104810;263;43017;-31
2023/03/27 00:34:04;;;;;;;7.20;4.90;;;;;;;;;;104796;263;42167;-31
2023/03/27 00:36:42;;;;;;;7.40;5.30;;;;;;;;;;104789;263;38803;-31
2023/03/27 00:39:20;;;;;;;7.50;5.50;;;;;;;;;;104751;263;39369;-31
2023/03/27 00:42:02;;;;;;;7.70;5.50;;;;;;;;;;104777;263;42791;-31
2023/03/27 00:44:41;;;;;;;6.70;4.90;;;;;;;;;;104787;263;42519;-31
2023/03/27 00:47:21;;;;;;;7.20;5.30;;;;;;;;;;104719;263;38782;-31
2023/03/27 00:49:59;;;;;;;7.60;5.30;;;;;;;;;;104774;263;41035;-31
2023/03/27 00:52:36;;;;;;;7.20;5.20;;;;;;;;;;104754;263;43101;-31
2023/03/27 00:55:18;;;;;;;7.50;5.60;;;;;;;;;;104789;263;43219;-31
2023/03/27 00:58:00;;;;;;;7.40;5.40;;;;;;;;;;104757;255;39013;-31
2023/03/27 01:00:35;;;;;;;;;;;;;;;;;;104794;263;40703;-31
2023/03/27 01:03:13;;;;;;;7.00;5.20;;;;;;;;;;104801;251;42918;-31
2023/03/27 01:05:50;;;;;;;7.10;5.20;;;;;;;;;;104747;263;43341;-31
2023/03/27 01:08:28;;;;;;;7.50;5.10;;;;;;;;;;104749;263;38648;-31
2023/03/27 01:11:19;;;;;;;7.80;5.60;;;;;;;;;;104786;263;39978;-31
2023/03/27 01:14:09;;;;;;;6.70;5.00;;;;;;;;;;104743;263;43092;-31
2023/03/27 01:16:57;;;;;;;7.00;5.30;;;;;;;;;;104783;263;42761;-31
2023/03/27 01:20:09;;;;;;;7.40;5.40;;;;;;;;;;104717;263;38975;-31
2023/03/27 01:23:08;;;;;;;7.40;5.60;;;;;;;;;;104750;264;39923;-31
2023/03/27 01:26:22;;;;;;;7.30;5.30;;;;;;;;;;104729;263;42923;-31
2023/03/27 01:29:24;;;;;;;7.20;5.30;;;;;;;;;;104551;263;175754;-31
2023/03/27 01:32:41;;;;;;;7.20;5.60;;;;;;;;;;104744;264;39985;-31
2023/03/27 01:35:57;;;;;;;7.60;5.50;;;;;;;;;;104745;264;39948;-31
2023/03/27 01:39:13;;;;;;;7.30;5.60;;;;;;;;;;104577;263;43963;-31
2023/03/27 01:41:57;;;;;;;7.70;5.40;;;;;;;;;;104734;263;42172;-31
2023/03/27 01:44:45;;;;;;;7.10;5.50;;;;;;;;;;104787;263;38966;-31
2023/03/27 01:47:31;;;;;;;7.30;5.40;;;;;;;;;;104812;263;39746;-31
2023/03/27 01:50:13;;;;;;;6.80;5.60;;;;;;;;;;104748;263;44205;-31
2023/03/27 01:52:54;;;;;;;7.40;5.40;;;;;;;;;;104794;263;42343;-31
2023/03/27 01:55:31;;;;;;;7.50;5.50;;;;;;;;;;104796;263;38838;-31
2023/03/27 01:58:12;;;;;;;7.40;5.60;;;;;;;;;;104766;263;41136;-31
2023/03/27 02:00:52;;;;;;;7.60;5.50;;;;;;;;;;104705;263;50247;-31
2023/03/27 02:03:33;;;;;;;7.60;5.60;;;;;;;;;;104800;263;42644;-31
2023/03/27 02:06:13;;;;;;;7.90;5.70;;;;;;;;;;104814;263;38883;-31
2023/03/27 02:08:52;;;;;;;7.50;5.30;;;;;;;;;;104730;263;40841;-31
2023/03/27 02:11:36;;;;;;;7.50;5.40;;;;;;;;;;104743;263;42849;-31
2023/03/27 02:14:14;;;;;;;;;;;;;;;;;;104777;263;42358;-31
2023/03/27 02:17:00;;;;;;;7.10;5.20;;;;;;;;;;104769;263;38969;-31
2023/03/27 02:19:42;;;;;;;7.20;5.10;;;;;;;;;;104727;263;39674;-31
2023/03/27 02:22:20;;;;;;;6.90;5.20;;;;;;;;;;104731;279;42846;-31
2023/03/27 02:25:27;;;;;;;7.10;5.30;;;;;;;;;;104763;263;42706;-31
2023/03/27 02:28:27;;;;;;;6.50;5.00;;;;;;;;;;104764;251;38585;-31
2023/03/27 02:31:15;;;;;;;7.20;5.30;;;;;;;;;;104723;263;39397;-31
2023/03/27 02:34:43;;;;;;;7.60;5.10;;;;;;;;;;104738;263;42587;-31
2023/03/27 02:37:27;;;;;;;7.40;5.30;;;;;;;;;;104716;263;42343;-31
2023/03/27 02:40:21;;;;;;;7.00;5.40;;;;;;;;;;104724;263;39870;-31
2023/03/27 02:43:05;;;;;;;7.30;5.20;;;;;;;;;;104761;263;40033;-31
2023/03/27 02:45:51;;;;;;;7.30;5.30;;;;;;;;;;104804;263;44326;-31
2023/03/27 02:48:32;;;;;;;7.00;5.00;;;;;;;;;;104781;263;42310;-31
2023/03/27 02:51:12;;;;;;;7.10;4.90;;;;;;;;;;104723;263;40210;-31
2023/03/27 02:53:53;;;;;;;6.90;5.20;;;;;;;;;;104795;263;39694;-31
2023/03/27 02:56:37;;;;;;;7.10;5.20;;;;;;;;;;104830;263;43082;-31
2023/03/27 02:59:22;;;;;;;7.10;5.30;;;;;;;;;;104857;263;42276;-31
2023/03/27 03:01:55;;;;;;;;;;;;;;;;;;104941;263;45863;-31
2023/03/27 03:04:40;;;;;;;6.90;5.00;;;;;;;;;;104838;263;39988;-31
2023/03/27 03:07:14;;;;;;;6.80;4.90;;;;;;;;;;104801;263;42890;-31
2023/03/27 03:09:55;;;;;;;7.80;5.30;;;;;;;;;;104759;264;42184;-31
2023/03/27 03:12:34;;;;;;;7.50;5.10;;;;;;;;;;104766;263;44986;-31
2023/03/27 03:15:11;;;;;;;6.80;5.30;;;;;;;;;;104982;260;40103;-31
2023/03/27 03:17:49;;;;;;;7.20;5.10;;;;;;;;;;104947;260;42963;-31
2023/03/27 03:20:24;;;;;;;7.50;5.20;;;;;;;;;;104898;260;42315;-31
2023/03/27 03:23:03;;;;;;;6.90;5.10;;;;;;;;;;104950;260;38941;-31
2023/03/27 03:25:40;;;;;;;7.10;5.00;;;;;;;;;;104933;260;39809;-31
2023/03/27 03:28:19;;;;;;;6.90;5.00;;;;;;;;;;104930;260;42847;-31
2023/03/27 03:31:01;;;;;;;7.50;5.20;;;;;;;;;;104899;260;42204;-31
2023/03/27 03:33:41;;;;;;;7.20;5.20;;;;;;;;;;104948;260;38941;-31
2023/03/27 03:36:15;;;;;;;7.90;5.60;;;;;;;;;;104558;260;424836;-31
2023/03/27 03:38:50;;;;;;;7.40;5.20;;;;;;;;;;104988;260;43951;-31
2023/03/27 03:41:30;;;;;;;7.40;4.90;;;;;;;;;;104924;261;42091;-31
2023/03/27 03:44:07;;;;;;;8.40;5.10;;;;;;;;;;104949;260;38791;-31
2023/03/27 03:46:41;;;;;;;7.50;5.00;;;;;;;;;;104984;260;39957;-31
2023/03/27 03:49:16;;;;;;;7.50;5.30;;;;;;;;;;104945;260;43942;-31
2023/03/27 03:51:51;;;;;;;9.20;5.60;;;;;;;;;;104946;264;43594;-31
2023/03/27 03:54:40;;;;;;;6.80;5.10;;;;;;;;;;104926;260;39134;-31
2023/03/27 03:57:15;;;;;;;7.60;5.00;;;;;;;;;;104941;260;40822;-30
2023/03/27 03:59:51;;;;;;;7.50;5.10;;;;;;;;;;104962;260;42999;-31
2023/03/27 04:02:30;;;;;;;7.30;4.90;;;;;;;;;;104895;260;42171;-31
2023/03/27 04:05:08;;;;;;;7.20;5.10;;;;;;;;;;104938;260;39926;-31
2023/03/27 04:07:48;;;;;;;6.90;4.70;;;;;;;;;;104921;260;39869;-31
2023/03/27 04:10:25;;;;;;;7.50;5.30;;;;;;;;;;104947;260;43954;-31
2023/03/27 04:13:02;;;;;;;7.00;4.80;;;;;;;;;;104888;261;43475;-31
2023/03/27 04:15:36;;;;;;;7.50;5.30;;;;;;;;;;104934;260;38817;-31
2023/03/27 04:18:10;;;;;;;6.70;5.00;;;;;;;;;;104936;260;40804;-31
2023/03/27 04:20:48;;;;;;;8.20;5.00;;;;;;;;;;104866;261;43982;-31
2023/03/27 04:23:22;;;;;;;8.10;5.20;;;;;;;;;;104930;260;42347;-31
2023/03/27 04:26:02;;;;;;;7.20;5.10;;;;;;;;;;104980;260;38852;-31
2023/03/27 04:28:38;;;;;;;7.70;5.30;;;;;;;;;;104894;260;41144;-31
2023/03/27 04:31:17;;;;;;;7.30;5.10;;;;;;;;;;104915;260;42847;-31
2023/03/27 04:33:55;;;;;;;7.50;5.30;;;;;;;;;;104911;260;43286;-31
2023/03/27 04:36:36;;;;;;;8.50;5.40;;;;;;;;;;104945;260;40065;-31
2023/03/27 04:39:10;;;;;;;7.60;5.20;;;;;;;;;;104927;260;39749;-31
2023/03/27 04:41:48;;;;;;;7.40;5.50;;;;;;;;;;104924;261;42886;-31
2023/03/27 04:44:30;;;;;;;7.70;5.90;;;;;;;;;;104928;260;51567;-31
2023/03/27 04:47:09;;;;;;;8.10;5.80;;;;;;;;;;104924;260;38587;-31
2023/03/27 04:49:49;;;;;;;7.50;5.60;;;;;;;;;;104915;260;39393;-31
2023/03/27 04:52:28;;;;;;;7.50;5.50;;;;;;;;;;104887;260;42994;-31
2023/03/27 04:55:06;;;;;;;7.20;5.20;;;;;;;;;;104921;260;42380;-31
2023/03/27 04:57:41;;;;;;;7.50;5.40;;;;;;;;;;104977;260;38864;-31
2023/03/27 05:00:18;;;;;;;8.00;5.40;;;;;;;;;;104943;260;39726;-31
2023/03/27 05:02:57;;;;;;;8.40;5.50;;;;;;;;;;104922;260;43032;-31
2023/03/27 05:05:33;;;;;;;7.80;5.60;;;;;;;;;;104309;260;895238;-31
2023/03/27 05:08:08;;;;;;;8.10;5.50;;;;;;;;;;104953;260;39122;-31
2023/03/27 05:10:45;;;;;;;8.70;5.60;;;;;;;;;;104969;260;39811;-31
2023/03/27 05:13:23;;;;;;;8.10;5.20;;;;;;;;;;104934;261;43009;-31
2023/03/27 05:16:03;;;;;;;8.40;5.20;;;;;;;;;;104950;260;42262;-31
2023/03/27 05:18:43;;;;;;;7.70;5.00;;;;;;;;;;104912;260;39082;-31
2023/03/27 05:21:25;;;;;;;8.00;5.20;;;;;;;;;;104957;260;39506;-31
2023/03/27 05:24:01;;;;;;;8.20;5.20;;;;;;;;;;104922;260;43182;-31
2023/03/27 05:26:39;;;;;;;7.80;5.50;;;;;;;;;;104937;260;42287;-31
2023/03/27 05:29:18;;;;;;;7.40;5.50;;;;;;;;;;104932;260;40287;-31
2023/03/27 05:31:55;;;;;;;7.00;5.00;;;;;;;;;;104914;260;39895;-31
2023/03/27 05:34:31;;;;;;;7.80;5.30;;;;;;;;;;104920;260;42845;-31
2023/03/27 05:37:10;;;;;;;7.20;5.20;;;;;;;;;;104813;260;175264;-31
2023/03/27 05:39:45;;;;;;;6.70;5.10;;;;;;;;;;104998;260;39806;-31
2023/03/27 05:42:25;;;;;;;8.10;5.40;;;;;;;;;;104987;260;39809;-30
2023/03/27 05:45:03;;;;;;;7.30;5.30;;;;;;;;;;104985;260;43683;-31
2023/03/27 05:47:47;;;;;;;8.60;5.50;;;;;;;;;;104986;261;43327;-31
2023/03/27 05:50:25;;;;;;;8.30;5.50;;;;;;;;;;105027;260;38868;-30
2023/03/27 05:53:00;;;;;;;7.70;5.00;;;;;;;;;;104999;260;39829;-30
2023/03/27 05:55:36;;;;;;;7.60;5.30;;;;;;;;;;104959;260;43350;-31
2023/03/27 05:58:12;;;;;;;7.00;5.00;;;;;;;;;;104990;260;42244;-31
2023/03/27 06:00:50;;;;;;;7.60;5.30;;;;;;;;;;104891;260;39203;-31
2023/03/27 06:03:28;;;;;;;8.10;5.10;;;;;;;;;;104993;260;39749;-31
2023/03/27 06:06:09;;;;;;;6.70;5.10;;;;;;;;;;104995;260;50219;-31
2023/03/27 06:08:46;;;;;;;7.00;5.00;;;;;;;;;;104785;261;176989;-31
2023/03/27 06:11:22;;;;;;;6.60;5.00;;;;;;;;;;104998;260;38769;-31
2023/03/27 06:14:00;;;;;;;7.30;5.10;;;;;;;;;;104960;260;39787;-31
2023/03/27 06:16:33;;;;;;;7.00;4.80;;;;;;;;;;104925;260;44313;-32
2023/03/27 06:19:08;;;;;;;7.30;5.00;;;;;;;;;;105015;260;42210;-33
2023/03/27 06:21:43;;;;;;;7.30;5.00;;;;;;;;;;105038;260;38832;-33
2023/03/27 06:24:18;;;;;;;7.30;5.10;;;;;;;;;;104997;260;40790;-33
2023/03/27 06:26:51;;;;;;;8.00;5.30;;;;;;;;;;105017;260;42738;-32
2023/03/27 06:29:29;;;;;;;7.10;4.80;;;;;;;;;;105047;259;42218;-32
2023/03/27 06:32:05;;;;;;;7.40;4.70;;;;;;;;;;105046;259;38850;-33
2023/03/27 06:34:41;;;;;;;6.80;4.80;;;;;;;;;;104920;259;39841;-32
2023/03/27 06:37:23;;;;;;;7.50;5.00;;;;;;;;;;104954;260;43006;-34
2023/03/27 06:40:02;;;;;;;8.40;5.10;;;;;;;;;;104992;252;42214;-35
2023/03/27 06:42:38;;;;;;;9.30;5.40;;;;;;;;;;105018;259;38773;-33
2023/03/27 06:45:14;;;;;;;8.00;5.10;;;;;;;;;;105014;259;39711;-35
2023/03/27 06:47:57;;;;;;;8.20;5.20;;;;;;;;;;105089;259;43174;-35
2023/03/27 06:50:51;;;;;;;;;;;;;;;;;;105092;259;42159;-34
2023/03/27 06:53:26;;;;;;;8.70;4.90;;;;;;;;;;105046;260;38974;-33
2023/03/27 06:56:04;;;;;;;7.70;5.00;;;;;;;;;;104986;259;40964;-33
2023/03/27 06:58:45;;;;;;;9.90;4.80;;;;;;;;;;105070;260;44233;-34
2023/03/27 07:01:22;;;;;;;9.40;4.80;;;;;;;;;;105103;260;42422;-33
2023/03/27 07:04:00;;;;;;;8.30;4.90;;;;;;;;;;104973;260;175638;-33
2023/03/27 07:06:38;;;;;;;10.30;4.90;;;;;;;;;;105022;260;39689;-34
2023/03/27 07:09:15;;;;;;;10.10;4.90;;;;;;;;;;105095;259;42951;-31
2023/03/27 07:11:54;;;;;;;8.40;4.90;;;;;;;;;;105058;260;42261;-33
2023/03/27 07:14:33;;;;;;;8.10;4.80;;;;;;;;;;105088;260;38799;-32
2023/03/27 07:17:12;;;;;;;8.40;4.60;;;;;;;;;;105089;260;39710;-33
2023/03/27 07:19:49;;;;;;;8.50;4.90;;;;;;;;;;105082;260;42925;-32
2023/03/27 07:22:27;;;;;;;7.60;4.40;;;;;;;;;;105102;260;42141;-33
2023/03/27 07:25:04;;;;;;;8.20;4.80;;;;;;;;;;105054;260;38976;-32
2023/03/27 07:27:41;;;;;;;8.20;4.40;;;;;;;;;;105170;248;47581;-32
2023/03/27 07:30:18;;;;;;;7.40;4.40;;;;;;;;;;105072;280;43158;-32
2023/03/27 07:32:56;;;;;;;7.40;4.10;;;;;;;;;;105132;260;42294;-32
2023/03/27 07:35:33;;;;;;;7.90;3.90;;;;;;;;;;105089;260;38823;-32
2023/03/27 07:38:11;;;;;;;7.10;4.00;;;;;;;;;;105109;260;45748;-33
2023/03/27 07:40:49;;;;;;;8.00;4.00;;;;;;;;;;105099;260;43110;-33
2023/03/27 07:43:24;;;;;;;6.20;3.60;;;;;;;;;;105103;260;42183;-33
2023/03/27 07:46:04;;;;;;;6.70;3.80;;;;;;;;;;105070;260;38916;-33
2023/03/27 07:48:43;;;;;;;6.60;3.90;;;;;;;;;;105096;260;39731;-34
2023/03/27 07:51:24;;;;;;;6.20;3.60;;;;;;;;;;105098;260;42956;-34
2023/03/27 07:54:03;;;;;;;;;;;;;;;;;;105134;260;42212;-34
2023/03/27 07:56:39;;;;;;;6.30;3.50;;;;;;;;;;104983;260;39193;-35
2023/03/27 07:59:20;;;;;;;5.80;3.40;;;;;;;;;;105064;260;39669;-34
2023/03/27 08:01:54;;;;;;;6.40;3.20;;;;;;;;;;105132;260;43935;-34
2023/03/27 08:04:28;;;;;;;6.40;3.50;;;;;;;;;;105120;260;43365;-34
2023/03/27 08:07:05;;;;;;;7.60;3.50;;;;;;;;;;104431;260;894374;-33
2023/03/27 08:09:41;;;;;;;6.30;3.20;;;;;;;;;;105073;260;39813;-33
2023/03/27 08:12:15;;;;;;;7.00;3.30;;;;;;;;;;105069;260;44235;-33
2023/03/27 08:14:53;;;;;;;6.50;3.30;;;;;;;;;;105052;260;42070;-33
2023/03/27 08:17:31;;;;;;;9.60;3.30;;;;;;;;;;105017;260;38534;-33
2023/03/27 08:20:08;;;;;;;6.50;3.20;;;;;;;;;;104970;260;175631;-32
2023/03/27 08:22:44;;;;;;;16.30;6.70;;;;;;;;;;105108;260;43850;-32
2023/03/27 08:25:21;;;;;;;10.50;4.50;;;;;;;;;;105042;256;42188;-35
2023/03/27 08:27:56;;;;;;;9.90;4.60;;;;;;;;;;105015;260;38974;-37
2023/03/27 08:30:34;;;;;;;18.60;8.10;;;;;;;;;;105077;260;40028;-35
2023/03/27 08:33:08;;;;;;;20.30;7.60;;;;;;;;;;105148;260;42924;-33
2023/03/27 08:35:41;;;;;;;15.50;6.40;;;;;;;;;;105107;260;42191;-35
2023/03/27 08:38:17;;;;;;;13.60;5.80;;;;;;;;;;105023;260;38788;-35
2023/03/27 08:41:05;;;;;;;13.50;5.30;;;;;;;;;;105111;260;39811;-34
2023/03/27 08:43:45;;;;;;;12.80;5.50;;;;;;;;;;105087;260;42834;-34
2023/03/27 08:46:26;;;;;;;13.00;5.40;;;;;;;;;;105089;260;42164;-34
2023/03/27 08:49:14;;;;;;;10.80;5.10;;;;;;;;;;105085;255;38795;-33
2023/03/27 08:51:52;;;;;;;12.20;4.90;;;;;;;;;;105095;260;40790;-33
2023/03/27 08:54:30;;;;;;;11.70;5.20;;;;;;;;;;105071;260;43068;-34
2023/03/27 08:57:22;;;;;;;11.10;5.10;;;;;;;;;;105068;260;42226;-33
2023/03/27 09:00:07;;;;;;;11.70;4.70;;;;;;;;;;105046;260;45661;-33
2023/03/27 09:02:53;;;;;;;10.50;4.90;;;;;;;;;;105087;260;39721;-32
2023/03/27 09:05:39;;;;;;;11.50;4.80;;;;;;;;;;105060;260;42963;-33
2023/03/27 09:08:23;;;;;;;9.90;4.50;;;;;;;;;;104957;260;42179;-34
2023/03/27 09:11:05;;;;;;;10.20;4.30;;;;;;;;;;105086;259;39104;-32
2023/03/27 09:13:44;;;;;;;9.60;4.10;;;;;;;;;;105113;260;39864;-33
2023/03/27 09:16:27;;;;;;;9.70;4.30;;;;;;;;;;105051;260;44079;-32
2023/03/27 09:19:10;;;;;;;9.10;4.00;;;;;;;;;;105035;259;42433;-31
2023/03/27 09:21:49;;;;;;;9.40;4.00;;;;;;;;;;105021;260;38895;-35
2023/03/27 09:24:31;;;;;;;8.80;4.20;;;;;;;;;;105143;259;39912;-30
2023/03/27 09:27:18;;;;;;;8.20;3.70;;;;;;;;;;105072;260;43139;-32
2023/03/27 09:30:02;;;;;;;9.60;4.00;;;;;;;;;;104995;260;42229;-33
2023/03/27 09:32:40;;;;;;;8.40;3.80;;;;;;;;;;105035;260;40092;-35
2023/03/27 09:35:17;;;;;;;8.70;3.80;;;;;;;;;;105054;259;40981;-33
2023/03/27 09:37:57;;;;;;;8.30;3.50;;;;;;;;;;104996;259;42870;-35
2023/03/27 09:40:36;;;;;;;8.00;3.40;;;;;;;;;;105027;260;42498;-36
2023/03/27 09:43:16;;;;;;;8.30;3.50;;;;;;;;;;105062;260;39929;-36
2023/03/27 09:45:51;;;;;;;8.10;3.50;;;;;;;;;;105036;259;41106;-33
2023/03/27 09:48:35;;;;;;;8.30;3.40;;;;;;;;;;105047;259;43046;-33
2023/03/27 09:51:42;;;;;;;7.30;3.40;;;;;;;;;;105143;260;49613;-33
2023/03/27 09:54:18;;;;;;;7.30;3.20;;;;;;;;;;105061;260;38948;-34
2023/03/27 09:56:56;;;;;;;8.10;3.20;;;;;;;;;;105027;260;39335;-33
2023/03/27 09:59:36;;;;;;;7.60;3.40;;;;;;;;;;104949;260;42976;-33
2023/03/27 10:02:23;;;;;;;7.30;3.20;;;;;;;;;;104275;260;894647;-33
2023/03/27 10:05:10;;;;;;;8.00;3.50;;;;;;;;;;104940;259;175668;-34
2023/03/27 10:07:48;;;;;;;6.50;2.90;;;;;;;;;;105007;260;39705;-35
2023/03/27 10:10:24;;;;;;;7.50;3.00;;;;;;;;;;104950;260;43148;-36
2023/03/27 10:13:01;;;;;;;7.20;2.80;;;;;;;;;;105031;260;42330;-35
2023/03/27 10:15:37;;;;;;;6.50;3.00;;;;;;;;;;105047;259;39087;-34
2023/03/27 10:18:27;;;;;;;6.40;2.80;;;;;;;;;;104966;261;39825;-36
2023/03/27 10:21:08;;;;;;;6.00;2.70;;;;;;;;;;104875;261;43100;-35
2023/03/27 10:23:48;;;;;;;5.50;2.70;;;;;;;;;;104918;261;42221;-36
2023/03/27 10:26:27;;;;;;;5.90;2.50;;;;;;;;;;104883;261;175645;-39
2023/03/27 10:29:23;;;;;;;6.40;2.70;;;;;;;;;;104878;261;39389;-34
2023/03/27 10:31:59;;;;;;;6.00;2.30;;;;;;;;;;104909;261;42859;-33
2023/03/27 10:34:37;;;;;;;6.00;2.50;;;;;;;;;;104989;261;42318;-36
2023/03/27 10:37:27;;;;;;;6.30;2.40;;;;;;;;;;104975;261;38797;-34
2023/03/27 10:40:08;;;;;;;5.40;2.40;;;;;;;;;;104944;261;39847;-34
2023/03/27 10:42:43;;;;;;;6.40;2.50;;;;;;;;;;104901;261;42869;-34
2023/03/27 10:45:21;;;;;;;6.10;2.40;;;;;;;;;;104915;261;42511;-35
2023/03/27 10:47:59;;;;;;;6.40;2.50;;;;;;;;;;104920;249;38959;-35
2023/03/27 10:50:38;;;;;;;5.80;2.30;;;;;;;;;;104939;261;40072;-36
2023/03/27 10:53:20;;;;;;;7.10;2.70;;;;;;;;;;104950;261;42833;-35
2023/03/27 10:56:03;;;;;;;5.80;2.60;;;;;;;;;;104919;261;43453;-34
2023/03/27 10:58:44;;;;;;;5.20;2.60;;;;;;;;;;105000;261;38902;-34
2023/03/27 11:01:25;;;;;;;6.50;2.70;;;;;;;;;;104891;261;39983;-34
2023/03/27 11:04:08;;;;;;;5.80;2.50;;;;;;;;;;104918;261;42639;-34
2023/03/27 11:06:45;;;;;;;6.50;2.60;;;;;;;;;;104949;261;42184;-34
2023/03/27 11:09:25;;;;;;;5.80;2.70;;;;;;;;;;104936;261;39006;-34
2023/03/27 11:12:05;;;;;;;6.20;2.50;;;;;;;;;;104925;261;39879;-34
2023/03/27 11:14:48;;;;;;;5.60;2.30;;;;;;;;;;104912;261;42852;-33
2023/03/27 11:17:27;;;;;;;5.80;2.20;;;;;;;;;;104905;261;42508;-34
2023/03/27 11:20:07;;;;;;;5.20;2.10;;;;;;;;;;104931;261;39024;-37
2023/03/27 11:22:46;;;;;;;5.00;2.20;;;;;;;;;;104919;261;40945;-35
2023/03/27 11:25:39;;;;;;;5.70;2.30;;;;;;;;;;104907;261;42927;-34
2023/03/27 11:28:23;;;;;;;5.10;2.10;;;;;;;;;;104919;261;42210;-34
2023/03/27 11:31:02;;;;;;;5.70;2.40;;;;;;;;;;104864;261;38702;-34
2023/03/27 11:33:51;;;;;;;4.60;2.10;;;;;;;;;;104922;261;39983;-36
2023/03/27 11:36:39;;;;;;;5.60;2.10;;;;;;;;;;104693;261;43218;-34
2023/03/27 11:39:28;;;;;;;5.50;2.00;;;;;;;;;;104928;261;43350;-34
2023/03/27 11:42:14;;;;;;;4.70;2.00;;;;;;;;;;104904;261;40052;-33
2023/03/27 11:44:47;;;;;;;4.60;1.80;;;;;;;;;;104928;261;39997;-33
2023/03/27 11:47:46;;;;;;;5.20;2.20;;;;;;;;;;104920;262;44056;-32
2023/03/27 11:50:30;;;;;;;5.30;2.10;;;;;;;;;;104945;261;42159;-33
2023/03/27 11:53:26;;;;;;;5.00;1.90;;;;;;;;;;104898;261;39021;-32
2023/03/27 11:56:30;;;;;;;5.20;1.90;;;;;;;;;;104902;261;39610;-32
2023/03/27 11:59:21;;;;;;;4.40;1.80;;;;;;;;;;104899;261;44007;-34
2023/03/27 12:02:06;;;;;;;4.60;1.60;;;;;;;;;;104915;261;42331;-35
2023/03/27 12:04:53;;;;;;;4.50;1.80;;;;;;;;;;104949;261;39000;-34
2023/03/27 12:07:43;;;;;;;4.90;1.60;;;;;;;;;;104913;262;40729;-32
2023/03/27 12:10:31;;;;;;;3.80;1.50;;;;;;;;;;104927;261;42824;-32
2023/03/27 12:13:31;;;;;;;5.00;1.70;;;;;;;;;;104914;261;42266;-33
2023/03/27 12:16:51;;;;;;;4.10;1.60;;;;;;;;;;104883;261;39084;-32
2023/03/27 12:19:51;;;;;;;3.90;1.60;;;;;;;;;;104929;261;40405;-34
2023/03/27 12:22:38;;;;;;;4.40;1.40;;;;;;;;;;104922;261;42978;-33
2023/03/27 12:25:48;;;;;;;3.90;1.50;;;;;;;;;;104865;261;42926;-33
2023/03/27 12:28:41;;;;;;;4.30;1.60;;;;;;;;;;104982;261;38971;-32
2023/03/27 12:31:35;;;;;;;3.70;1.40;;;;;;;;;;104888;261;40678;-33
2023/03/27 12:34:33;;;;;;;3.90;1.60;;;;;;;;;;104777;261;175573;-32
2023/03/27 12:37:14;;;;;;;3.50;1.40;;;;;;;;;;104910;261;43302;-32
2023/03/27 12:39:54;;;;;;;4.50;1.60;;;;;;;;;;104822;261;175559;-34
2023/03/27 12:42:43;;;;;;;4.70;1.60;;;;;;;;;;104894;261;39877;-34
2023/03/27 12:45:23;;;;;;;3.70;1.40;;;;;;;;;;104883;261;43945;-34
2023/03/27 12:48:20;;;;;;;4.30;1.60;;;;;;;;;;104917;261;42164;-34
2023/03/27 12:51:01;;;;;;;3.90;1.50;;;;;;;;;;104949;261;38888;-34
2023/03/27 12:53:51;;;;;;;4.40;1.60;;;;;;;;;;104882;261;39953;-33
2023/03/27 12:56:43;;;;;;;5.10;1.60;;;;;;;;;;105047;261;42985;-33
2023/03/27 12:59:25;;;;;;;4.50;1.90;;;;;;;;;;104933;261;43276;-33
2023/03/27 13:02:36;;;;;;;4.60;1.60;;;;;;;;;;104935;261;40022;-33
2023/03/27 13:05:52;;;;;;;3.80;1.50;;;;;;;;;;104920;261;47049;-33
2023/03/27 13:08:54;;;;;;;4.20;1.70;;;;;;;;;;104925;261;43025;-33
2023/03/27 13:11:48;;;;;;;3.90;1.70;;;;;;;;;;104948;261;43486;-33
2023/03/27 13:14:42;;;;;;;3.80;1.60;;;;;;;;;;104923;261;38806;-33
2023/03/27 13:17:43;;;;;;;3.50;1.60;;;;;;;;;;104900;261;39500;-34
2023/03/27 13:20:33;;;;;;;4.00;1.40;;;;;;;;;;104894;261;43167;-34
2023/03/27 13:23:33;;;;;;;3.40;1.60;;;;;;;;;;104933;261;43404;-34
2023/03/27 13:26:24;;;;;;;3.80;1.60;;;;;;;;;;105008;261;46768;-34
2023/03/27 13:29:02;;;;;;;3.70;1.40;;;;;;;;;;104947;261;39888;-32
2023/03/27 13:32:00;;;;;;;4.60;1.50;;;;;;;;;;104912;261;42897;-33
2023/03/27 13:34:44;;;;;;;3.30;1.30;;;;;;;;;;104928;261;43293;-34
2023/03/27 13:37:47;;;;;;;4.30;1.70;;;;;;;;;;104870;261;39818;-33
2023/03/27 13:40:30;;;;;;;4.60;1.70;;;;;;;;;;104936;261;39341;-33
2023/03/27 13:43:14;;;;;;;4.50;1.50;;;;;;;;;;104984;261;43836;-33
2023/03/27 13:45:51;;;;;;;3.80;1.50;;;;;;;;;;104939;261;42320;-34
2023/03/27 13:48:55;;;;;;;4.40;1.50;;;;;;;;;;104931;261;38950;-33
2023/03/27 13:51:56;;;;;;;3.50;1.40;;;;;;;;;;104924;261;40057;-32
2023/03/27 13:54:58;;;;;;;4.00;1.40;;;;;;;;;;104937;261;43128;-33
2023/03/27 13:58:02;;;;;;;3.70;1.40;;;;;;;;;;104958;261;48299;-33
2023/03/27 14:00:55;;;;;;;3.70;1.30;;;;;;;;;;104955;261;40081;-33
2023/03/27 14:04:19;;;;;;;3.90;1.50;;;;;;;;;;104944;261;40060;-32
2023/03/27 14:07:24;;;;;;;3.60;1.30;;;;;;;;;;104848;261;44063;-32
2023/03/27 14:10:23;;;;;;;4.50;1.60;;;;;;;;;;104947;261;43287;-34
2023/03/27 14:13:11;;;;;;;3.70;1.30;;;;;;;;;;104907;261;39129;-32
2023/03/27 14:16:11;;;;;;;3.70;1.30;;;;;;;;;;104920;261;40772;-32
2023/03/27 14:19:03;;;;;;;4.40;1.40;;;;;;;;;;104956;261;44102;-34
2023/03/27 14:21:55;;;;;;;3.90;1.50;;;;;;;;;;104936;261;43479;-34
2023/03/27 14:24:38;;;;;;;4.70;1.40;;;;;;;;;;104968;261;38932;-33
2023/03/27 14:27:17;;;;;;;6.30;3.40;;;;;;;;;;104943;250;39428;-33
2023/03/27 14:30:06;;;;;;;11.60;7.40;;;;;;;;;;104972;261;43140;-33
2023/03/27 14:32:39;;;;;;;8.50;5.80;;;;;;;;;;104963;261;43440;-33
2023/03/27 14:35:31;;;;;;;7.90;5.00;;;;;;;;;;104974;250;39102;-33
2023/03/27 14:38:15;;;;;;;7.00;3.90;;;;;;;;;;104967;261;40673;-33
2023/03/27 14:40:51;;;;;;;7.00;3.90;;;;;;;;;;104952;261;42996;-33
2023/03/27 14:43:27;;;;;;;6.50;3.30;;;;;;;;;;104946;261;42523;-33
2023/03/27 14:46:05;;;;;;;6.50;3.20;;;;;;;;;;104903;261;40097;-33
2023/03/27 14:48:41;;;;;;;6.00;2.90;;;;;;;;;;105015;261;45755;-33
2023/03/27 14:51:20;;;;;;;5.70;2.70;;;;;;;;;;104945;261;43135;-33
2023/03/27 14:53:59;;;;;;;5.90;2.50;;;;;;;;;;104999;261;42369;-35
2023/03/27 14:56:40;;;;;;;4.90;2.10;;;;;;;;;;104886;261;38709;-33
2023/03/27 14:59:23;;;;;;;5.30;2.00;;;;;;;;;;104947;261;39826;-31
2023/03/27 15:02:01;;;;;;;5.50;2.40;;;;;;;;;;104896;261;42939;-33
2023/03/27 15:04:40;;;;;;;6.40;1.90;;;;;;;;;;104964;261;42195;-33
2023/03/27 15:07:19;;;;;;;6.00;1.90;;;;;;;;;;104909;261;39080;-34
2023/03/27 15:10:21;;;;;;;4.70;1.80;;;;;;;;;;104963;250;40040;-33
2023/03/27 15:12:55;;;;;;;4.90;1.80;;;;;;;;;;104983;261;42950;-33
2023/03/27 15:15:38;;;;;;;5.60;1.70;;;;;;;;;;104947;261;42350;-33
2023/03/27 15:18:17;;;;;;;5.20;1.80;;;;;;;;;;104891;261;39019;-33
2023/03/27 15:20:55;;;;;;;5.90;1.70;;;;;;;;;;104953;261;39683;-33
2023/03/27 15:23:37;;;;;;;4.60;1.70;;;;;;;;;;104916;261;43170;-30
2023/03/27 15:26:19;;;;;;;4.40;1.60;;;;;;;;;;104974;261;42427;-31
2023/03/27 15:29:02;;;;;;;4.40;1.60;;;;;;;;;;104861;262;38890;-35
2023/03/27 15:31:37;;;;;;;4.20;1.50;;;;;;;;;;105002;261;39682;-33
2023/03/27 15:34:19;;;;;;;4.90;1.60;;;;;;;;;;105006;261;43146;-34
2023/03/27 15:36:58;;;;;;;5.20;1.80;;;;;;;;;;104892;261;42372;-34
2023/03/27 15:39:37;;;;;;;4.60;1.50;;;;;;;;;;105010;262;47908;-34
2023/03/27 15:42:17;;;;;;;4.10;1.50;;;;;;;;;;104888;258;39351;-35
2023/03/27 15:44:57;;;;;;;3.90;1.50;;;;;;;;;;104930;261;42819;-34
2023/03/27 15:47:33;;;;;;;4.10;1.40;;;;;;;;;;104895;261;41936;-33
2023/03/27 15:50:21;;;;;;;4.30;1.40;;;;;;;;;;104912;261;39932;-33
2023/03/27 15:52:57;;;;;;;4.50;1.60;;;;;;;;;;104975;261;39655;-34
2023/03/27 15:55:39;;;;;;;4.10;1.30;;;;;;;;;;104948;261;44100;-33
2023/03/27 15:58:23;;;;;;;;;;;;;;;;;;104956;261;42238;-33
2023/03/27 16:01:01;;;;;;;4.30;1.60;;;;;;;;;;104976;261;39129;-33
2023/03/27 16:03:51;;;;;;;4.80;1.50;;;;;;;;;;105020;261;39829;-33
2023/03/27 16:06:32;;;;;;;4.30;1.60;;;;;;;;;;104986;261;42972;-32
2023/03/27 16:09:22;;;;;;;3.90;1.50;;;;;;;;;;104930;261;42481;-33
2023/03/27 16:11:57;;;;;;;4.40;1.50;;;;;;;;;;105003;261;38847;-33
2023/03/27 16:14:35;;;;;;;4.40;1.60;;;;;;;;;;104967;261;40764;-34